South-central Hudson - eastern half: Past 24 Hour Conditions

 

Kugaaruk Airport

02:00 PM MDT 17 April 2014
This table is a summary of hourly weather conditions for the past 24 hours.
Date / Time
(MDT)
Wind(knots) Conditions Visibility(km) Pressure(kPa) Air tempC) Relative humidity(%) Dew pointC) Wind Chill
17 April 2014
14:00 W 13 gust 19 Sunny 24 101.3 -16 78 -19 -26
13:00 WNW 10 Sunny 24 101.3 -15 78 -18 -24
12:00 W 10 Sunny 24 101.2 -16 78 -19 -25
11:00 WSW 10 Ice Crystals 24 101.2 -17 72 -21 -27
10:00 WSW 11 gust 19 Ice Crystals 24 101.2 -18 84 -20 -29
9:00 SW 12 Ice Crystals 24 101.2 -20 77 -23 -31
8:00 SW 13 Ice Crystals 24 101.2 -22 75 -25 -34
7:00 WSW 10 Ice Crystals 24 101.2 -22 74 -26 -33
6:00 WSW 10 gust 16 Ice Crystals 24 101.1 -21 76 -24 -31
5:00 SW 11 N/A N/A 101.0 -24 77 -27 -36
4:00 SW 8 N/A N/A 101.0 -24 78 -27 -34
3:00 NE 1 N/A N/A 100.9 -21 82 -23 -22
2:00 ENE 3 N/A N/A 100.9 -21 82 -23 -26
1:00 E 5 N/A N/A 100.9 -22 81 -24 -28
0:00 NNE 11 N/A N/A 100.8 -22 81 -24 -33
16 April 2014
23:00 N 10 N/A N/A 100.8 -22 81 -24 -33
22:00 NNE 8 N/A N/A 100.8 -21 80 -23 -30
21:00 NNE 9 N/A N/A 100.8 -20 80 -23 -30
20:00 NNE 10 N/A N/A 100.7 -17 81 -20 -27
19:00 NE 9 N/A N/A 100.7 -16 80 -19 -25
18:00 ENE 4 N/A N/A 100.8 -16 84 -18 -21
17:00 NNE 8 Mostly Cloudy 24 100.8 -16 78 -19 -24
16:00 NE 4 Mainly Sunny 24 100.8 -16 77 -19 -22
15:00 calm Light Snow 24 100.9 -15 79 -18 *
14:00 W 3 Light Snow 24 100.9 -15 78 -18 -19
 
Map of Arctic - Eastern Arctic marine weather areas Baker Lake Airport Chesterfield Inlet Airport Coral Harbour Airport Gjoa Haven Airport Kugaaruk Airport Rankin Inlet Airport Shepherd Bay Airport Whale Cove Airport Arctic Bay Brevoort Island Qikiqtarjuaq Airport Cape Dorset Airport Cape Dyer Cape Hooper Clyde Airport Grise Fiord Airport Hall Beach Airport Igloolik Airport Iqaluit Airport Longstaff Bluff Pangnirtung Airport Pond Inlet Airport Repulse Bay Airport Resolute Airport Resolution Island Rowley Island Airport Taloyoak Airport Wager Bay Akulivik Airport Ivujivik Airport Puvirnituq Airport Kangiqsujuaq Airport Kangirsuk Airport Quaqtaq Airport Tasiujaq Airport Cape Kakkiviak Cape Kiglapait Nain Airport Saglek Cape Mercy Kimmirut Airport Aupaluk Airport Salluit Airport Kangiqsualujjuaq Airport Fort Ross
Legend: buoyBuoy land stationLand Station